Time;durP1;ratioP1;P1;durP2;ratioP2;P2;SDS_P1;SDS_P2;PMS_P1;PMS_P2;Temp;Humidity;BMP_temperature;BMP_pressure;BME280_temperature;BME280_humidity;BME280_pressure;Samples;Min_cycle;Max_cycle;Signal;HPM_P1;HPM_P2
2023/12/05 00:02:09;;;;;;;;;;;;;;;1.51;60.65;100712.44;5466847;32;34875;-66
2023/12/05 00:05:11;;;;;;;;;;;;;;;1.13;61.66;100700.19;5455828;32;34276;-78
2023/12/05 00:08:15;;;;;;;;;;;;;;;0.29;64.23;100696.25;5451102;32;34754;-78
2023/12/05 00:11:17;;;;;;;;;;;;;;;0.55;64.61;100702.47;5462332;32;34345;-78
2023/12/05 00:14:19;;;;;;;;;;;;;;;0.99;63.10;100701.87;5466168;32;35948;-70
2023/12/05 00:17:21;;;;;;;;;;;;;;;0.60;63.32;100695.59;5462798;32;34359;-72
2023/12/05 00:20:24;;;;;;;;;;;;;;;0.48;63.76;100700.69;5447287;32;34916;-72
2023/12/05 00:23:26;;;;;;;;;;;;;;;0.92;62.21;100695.78;5468773;32;35003;-71
2023/12/05 00:26:28;;;;;;;;;;;;;;;2.04;58.75;100689.19;5462767;32;34418;-70
2023/12/05 00:29:30;;;;;;;;;;;;;;;0.22;63.64;100706.53;5467860;32;34891;-71
2023/12/05 00:32:32;;;;;;;;;;;;;;;0.48;62.86;100698.97;5464337;32;35365;-70
2023/12/05 00:35:34;;;;;;;;;;;;;;;0.62;63.07;100701.66;5458757;32;34782;-79
2023/12/05 00:38:37;;;;;;;;;;;;;;;0.38;63.14;100698.88;5466632;32;34329;-70
2023/12/05 00:41:39;;;;;;;;;;;;;;;1.33;61.15;100698.53;5444597;32;37664;-79
2023/12/05 00:44:41;;;;;;;;;;;;;;;1.08;61.14;100699.31;5469161;32;34711;-71
2023/12/05 00:47:43;;;;;;;;;;;;;;;-0.04;65.13;100703.72;5466086;32;34954;-80
2023/12/05 00:50:45;;;;;;;;;;;;;;;0.80;61.82;100698.31;5467579;32;34675;-78
2023/12/05 00:53:47;;;;;;;;;;;;;;;-0.14;65.84;100707.06;5464679;32;34318;-70
2023/12/05 00:56:49;;;;;;;;;;;;;;;0.53;64.33;100696.44;5465867;32;35175;-71
2023/12/05 00:59:51;;;;;;;;;;;;;;;0.72;63.58;100697.41;5466757;32;35136;-80
2023/12/05 01:02:53;;;;;;;;;;;;;;;0.65;63.25;100700.81;5465127;32;35342;-70
2023/12/05 01:05:56;;;;;;;;;;;;;;;0.30;64.94;100701.41;5467098;32;34971;-78
2023/12/05 01:08:59;;;;;;;;;;;;;;;1.35;61.59;100686.50;5449211;32;35395;-70
2023/12/05 01:12:02;;;;;;;;;;;;;;;0.13;64.13;100705.56;5467560;32;34826;-71
2023/12/05 01:15:05;;;;;;;;;;;;;;;0.63;63.32;100697.34;5462002;32;34089;-80
2023/12/05 01:18:07;;;;;;;;;;;;;;;0.68;63.71;100704.28;5463628;32;35012;-79
2023/12/05 01:21:09;;;;;;;;;;;;;;;0.88;63.01;100699.22;5465920;32;35378;-78
2023/12/05 01:24:11;;;;;;;;;;;;;;;1.26;62.02;100683.84;5465927;32;35146;-70
2023/12/05 01:27:13;;;;;;;;;;;;;;;1.45;61.10;100695.13;5455951;32;35499;-75
2023/12/05 01:30:16;;;;;;;;;;;;;;;0.84;61.63;100687.13;5452107;32;35352;-70
2023/12/05 01:33:18;;;;;;;;;;;;;;;0.58;64.29;100693.84;5452377;32;34895;-78
2023/12/05 01:36:20;;;;;;;;;;;;;;;0.89;63.02;100677.66;5461879;32;34295;-77
2023/12/05 01:39:22;;;;;;;;;;;;;;;0.31;64.74;100673.84;5453261;32;34857;-78
2023/12/05 01:42:25;;;;;;;;;;;;;;;0.23;65.81;100666.03;5465447;32;35113;-71
2023/12/05 01:45:27;;;;;;;;;;;;;;;-0.40;67.67;100656.88;5463451;32;35499;-71
2023/12/05 01:48:29;;;;;;;;;;;;;;;0.39;66.13;100647.22;5467896;32;35145;-79
2023/12/05 01:51:31;;;;;;;;;;;;;;;0.56;65.28;100638.66;5451605;32;35446;-70
2023/12/05 01:54:37;;;;;;;;;;;;;;;0.88;65.57;100616.41;5455272;32;35809;-71
2023/12/05 01:57:39;;;;;;;;;;;;;;;1.35;63.61;100628.62;5461650;32;34787;-79
2023/12/05 02:00:42;;;;;;;;;;;;;;;0.95;64.79;100614.69;5462467;32;35042;-71
2023/12/05 02:03:44;;;;;;;;;;;;;;;0.40;65.16;100620.50;5467859;32;34757;-70
2023/12/05 02:06:47;;;;;;;;;;;;;;;0.55;65.87;100614.53;5450668;32;34420;-71
2023/12/05 02:09:49;;;;;;;;;;;;;;;0.66;65.41;100610.28;5466882;32;35599;-77
2023/12/05 02:12:52;;;;;;;;;;;;;;;1.27;63.76;100614.78;5451388;32;35350;-70
2023/12/05 02:15:58;;;;;;;;;;;;;;;1.74;62.52;100606.22;5464580;32;34443;-70
2023/12/05 02:19:12;;;;;;;;;;;;;;;0.83;64.18;100602.56;5446028;32;35433;-69
2023/12/05 02:22:30;;;;;;;;;;;;;;;-0.38;68.73;100599.25;5460200;32;34486;-70
2023/12/05 02:25:51;;;;;;;;;;;;;;;-0.60;70.06;100580.09;5450599;32;34428;-71
2023/12/05 02:28:53;;;;;;;;;;;;;;;1.24;64.74;100566.47;5461315;32;34750;-70
2023/12/05 02:31:56;;;;;;;;;;;;;;;1.06;64.73;100554.34;5465291;32;35005;-78
2023/12/05 02:34:59;;;;;;;;;;;;;;;0.64;64.34;100549.88;5461952;32;34946;-77
2023/12/05 02:38:33;;;;;;;;;;;;;;;0.65;65.64;100548.19;5448764;32;34705;-77
2023/12/05 02:41:41;;;;;;;;;;;;;;;1.32;62.92;100538.84;5430263;32;34732;-79
2023/12/05 02:44:46;;;;;;;;;;;;;;;1.27;63.81;100537.12;5456765;32;33822;-81
2023/12/05 02:47:48;;;;;;;;;;;;;;;0.34;65.56;100550.62;5467718;32;34797;-79
2023/12/05 02:50:52;;;;;;;;;;;;;;;0.10;68.25;100553.09;5460089;32;35329;-77
2023/12/05 02:53:54;;;;;;;;;;;;;;;0.76;66.19;100546.50;5465142;32;35291;-76
2023/12/05 02:56:57;;;;;;;;;;;;;;;1.19;65.37;100549.19;5469084;32;34795;-71
2023/12/05 02:59:59;;;;;;;;;;;;;;;1.26;63.53;100544.03;5437157;32;34363;-79
2023/12/05 03:03:01;;;;;;;;;;;;;;;1.10;64.54;100560.41;5469758;32;34327;-79
2023/12/05 03:06:04;;;;;;;;;;;;;;;1.24;64.59;100557.84;5463096;32;34097;-71
2023/12/05 03:09:07;;;;;;;;;;;;;;;0.96;65.13;100552.56;5468530;32;34546;-80
2023/12/05 03:12:09;;;;;;;;;;;;;;;1.40;63.19;100538.84;5448627;32;35730;-71
2023/12/05 03:15:11;;;;;;;;;;;;;;;1.76;63.10;100537.12;5462228;32;34717;-80
2023/12/05 03:18:13;;;;;;;;;;;;;;;1.56;62.48;100530.22;5467071;32;35031;-71
2023/12/05 03:21:16;;;;;;;;;;;;;;;1.08;63.73;100534.50;5450906;32;34862;-70
2023/12/05 03:24:18;;;;;;;;;;;;;;;1.43;62.97;100531.09;5469018;32;34464;-71
2023/12/05 03:27:21;;;;;;;;;;;;;;;0.36;66.97;100533.41;5448256;32;34432;-71
2023/12/05 03:30:23;;;;;;;;;;;;;;;0.91;66.81;100525.00;5467729;32;34980;-80
2023/12/05 03:33:25;;;;;;;;;;;;;;;0.88;66.89;100525.81;5466134;32;38288;-81
2023/12/05 03:36:27;;;;;;;;;;;;;;;0.34;68.67;100519.63;5454560;32;35096;-70
2023/12/05 03:39:30;;;;;;;;;;;;;;;1.54;64.34;100511.22;5444643;32;35039;-77
2023/12/05 03:42:32;;;;;;;;;;;;;;;0.34;66.63;100514.44;5465093;32;34694;-78
2023/12/05 03:45:34;;;;;;;;;;;;;;;1.46;65.09;100515.53;5467374;32;35007;-72
2023/12/05 03:48:37;;;;;;;;;;;;;;;0.91;66.42;100518.09;5464110;32;34999;-79
2023/12/05 03:51:39;;;;;;;;;;;;;;;0.68;66.58;100509.38;5465732;32;35102;-70
2023/12/05 03:54:41;;;;;;;;;;;;;;;0.68;66.34;100511.97;5465964;32;35256;-71
2023/12/05 03:57:43;;;;;;;;;;;;;;;-0.06;68.87;100506.50;5450149;32;35439;-71
2023/12/05 04:00:46;;;;;;;;;;;;;;;1.80;63.82;100497.38;5467388;32;35456;-73
2023/12/05 04:03:48;;;;;;;;;;;;;;;1.71;63.58;100498.25;5440428;32;35169;-79
2023/12/05 04:06:50;;;;;;;;;;;;;;;1.75;63.24;100492.22;5469317;32;34855;-76
2023/12/05 04:09:52;;;;;;;;;;;;;;;1.56;63.85;100482.75;5443158;32;34693;-71
2023/12/05 04:12:54;;;;;;;;;;;;;;;1.06;65.95;100491.34;5466130;32;35334;-71
2023/12/05 04:15:57;;;;;;;;;;;;;;;1.74;63.12;100482.72;5462979;32;34848;-71
2023/12/05 04:19:00;;;;;;;;;;;;;;;0.63;66.47;100487.81;5432409;32;35382;-71
2023/12/05 04:22:02;;;;;;;;;;;;;;;1.13;65.21;100481.88;5451524;32;34416;-81
2023/12/05 04:25:04;;;;;;;;;;;;;;;1.46;62.75;100479.28;5439602;32;34654;-71
2023/12/05 04:28:07;;;;;;;;;;;;;;;0.72;66.08;100480.09;5469407;32;34188;-80
2023/12/05 04:31:09;;;;;;;;;;;;;;;0.67;67.04;100480.06;5463576;32;35070;-72
2023/12/05 04:34:11;;;;;;;;;;;;;;;1.29;65.05;100475.84;5447972;32;34922;-78
2023/12/05 04:37:13;;;;;;;;;;;;;;;0.17;67.85;100485.91;5450858;32;35250;-71
2023/12/05 04:40:15;;;;;;;;;;;;;;;0.92;66.29;100478.41;5462611;32;34960;-79
2023/12/05 04:43:18;;;;;;;;;;;;;;;1.72;63.28;100481.84;5465960;32;35110;-79
2023/12/05 04:46:20;;;;;;;;;;;;;;;1.39;64.58;100474.97;5463235;32;34740;-79
2023/12/05 04:49:22;;;;;;;;;;;;;;;1.02;65.14;100479.25;5452382;32;34549;-72
2023/12/05 04:52:24;;;;;;;;;;;;;;;1.52;63.43;100487.06;5462722;32;35518;-79
2023/12/05 04:55:27;;;;;;;;;;;;;;;1.96;62.76;100475.75;5463897;32;34459;-81
2023/12/05 04:58:29;;;;;;;;;;;;;;;1.50;64.03;100472.38;5466747;32;35102;-71
2023/12/05 05:01:31;;;;;;;;;;;;;;;1.54;62.96;100477.53;5462362;32;34784;-71
2023/12/05 05:04:33;;;;;;;;;;;;;;;1.76;63.05;100480.13;5467710;32;35208;-79
2023/12/05 05:07:36;;;;;;;;;;;;;;;-0.18;69.03;100478.00;5462641;32;35398;-70
2023/12/05 05:10:38;;;;;;;;;;;;;;;0.49;68.30;100483.47;5458823;32;35706;-72
2023/12/05 05:13:40;;;;;;;;;;;;;;;1.40;64.03;100474.09;5446181;32;34249;-70
2023/12/05 05:16:53;;;;;;;;;;;;;;;0.41;66.64;100476.53;5459309;32;35179;-81
2023/12/05 05:19:58;;;;;;;;;;;;;;;0.35;67.83;100489.44;5464222;32;36901;-81
2023/12/05 05:23:00;;;;;;;;;;;;;;;0.51;65.94;100486.91;5464480;32;35830;-78
2023/12/05 05:26:02;;;;;;;;;;;;;;;0.53;67.46;100477.44;5468131;32;35038;-71
2023/12/05 05:29:04;;;;;;;;;;;;;;;1.35;65.06;100471.53;5464361;32;34670;-81
2023/12/05 05:32:10;;;;;;;;;;;;;;;1.04;65.94;100480.16;5466769;32;34471;-77
2023/12/05 05:35:12;;;;;;;;;;;;;;;1.66;62.33;100475.81;5464307;32;35052;-72
2023/12/05 05:38:24;;;;;;;;;;;;;;;0.75;66.72;100477.50;5448146;32;34504;-75
2023/12/05 05:41:30;;;;;;;;;;;;;;;0.84;66.92;100477.53;5452651;32;33465;-71
2023/12/05 05:44:32;;;;;;;;;;;;;;;1.12;64.63;100475.84;5450619;32;34605;-71
2023/12/05 05:47:34;;;;;;;;;;;;;;;1.74;63.81;100471.47;5467557;32;34787;-79
2023/12/05 05:50:40;;;;;;;;;;;;;;;1.87;62.98;100468.00;5461187;32;34857;-79
2023/12/05 05:53:42;;;;;;;;;;;;;;;1.81;62.64;100468.03;5464037;32;35827;-71
2023/12/05 05:56:44;;;;;;;;;;;;;;;1.60;64.19;100476.66;5449471;32;34514;-71
2023/12/05 05:59:46;;;;;;;;;;;;;;;2.38;61.84;100476.47;5461622;32;34235;-80
2023/12/05 06:02:49;;;;;;;;;;;;;;;1.08;65.57;100479.28;5467143;32;34388;-77
2023/12/05 06:05:51;;;;;;;;;;;;;;;1.15;65.21;100474.97;5461711;32;35420;-80
2023/12/05 06:08:55;;;;;;;;;;;;;;;2.24;62.34;100473.91;5464250;32;35285;-72
2023/12/05 06:11:57;;;;;;;;;;;;;;;1.74;63.32;100476.66;5446839;32;34436;-71
2023/12/05 06:14:59;;;;;;;;;;;;;;;2.25;61.09;100473.06;5461956;32;34940;-74
2023/12/05 06:18:02;;;;;;;;;;;;;;;1.51;63.79;100471.50;5466716;32;35417;-80
2023/12/05 06:21:04;;;;;;;;;;;;;;;1.28;65.43;100471.50;5468768;32;34984;-85
2023/12/05 06:24:08;;;;;;;;;;;;;;;1.43;64.74;100479.28;5472297;32;35239;-83
2023/12/05 06:27:10;;;;;;;;;;;;;;;2.05;62.75;100480.03;5454380;32;34257;-73
2023/12/05 06:30:12;;;;;;;;;;;;;;;1.51;63.82;100479.28;5461986;32;34406;-70
2023/12/05 06:33:25;;;;;;;;;;;;;;;1.76;62.71;100488.75;5447375;32;35014;-69
2023/12/05 06:36:27;;;;;;;;;;;;;;;0.81;66.38;100496.47;5454280;32;34892;-71
2023/12/05 06:39:29;;;;;;;;;;;;;;;2.14;62.82;100482.62;5453912;32;35382;-67
2023/12/05 06:42:34;;;;;;;;;;;;;;;2.72;60.11;100467.66;5455988;32;34867;-80
2023/12/05 06:45:36;;;;;;;;;;;;;;;1.93;62.68;100485.25;5469320;32;35524;-76
2023/12/05 06:48:38;;;;;;;;;;;;;;;1.95;63.08;100486.12;5447205;32;34863;-82
2023/12/05 06:51:46;;;;;;;;;;;;;;;1.10;65.62;100489.66;5441930;32;34270;-80
2023/12/05 06:54:56;;;;;;;;;;;;;;;1.75;62.56;100486.19;5458993;32;35070;-76
2023/12/05 06:58:00;;;;;;;;;;;;;;;1.45;63.87;100480.16;5445759;32;36549;-71
2023/12/05 07:01:02;;;;;;;;;;;;;;;1.66;64.36;100468.91;5457559;32;35113;-73
2023/12/05 07:04:05;;;;;;;;;;;;;;;0.95;67.11;100482.72;5456875;32;35223;-70
2023/12/05 07:07:07;;;;;;;;;;;;;;;1.23;66.61;100484.47;5448030;32;34304;-73
2023/12/05 07:10:10;;;;;;;;;;;;;;;1.23;66.68;100488.78;5440335;32;37522;-75
2023/12/05 07:13:12;;;;;;;;;;;;;;;1.23;66.66;100489.66;5458681;32;34389;-68
2023/12/05 07:16:16;;;;;;;;;;;;;;;1.73;65.49;100491.34;5456003;32;34196;-72
2023/12/05 07:19:19;;;;;;;;;;;;;;;1.99;63.77;100488.69;5440415;32;34340;-69
2023/12/05 07:22:24;;;;;;;;;;;;;;;2.61;61.96;100489.34;5461036;32;34157;-73
2023/12/05 07:25:31;;;;;;;;;;;;;;;1.82;63.19;100498.25;5450757;32;35333;-77
2023/12/05 07:28:35;;;;;;;;;;;;;;;2.84;60.91;100503.06;5459720;32;34733;-74
2023/12/05 07:31:41;;;;;;;;;;;;;;;2.49;61.15;100516.19;5450408;32;34355;-69
2023/12/05 07:34:50;;;;;;;;;;;;;;;2.77;60.91;100506.56;5456297;32;34816;-76
2023/12/05 07:37:52;;;;;;;;;;;;;;;1.93;63.52;100504.25;5457388;32;34879;-82
2023/12/05 07:40:57;;;;;;;;;;;;;;;2.80;59.89;100514.31;5443646;32;31173;-72
2023/12/05 07:44:01;;;;;;;;;;;;;;;1.62;64.42;100519.88;5437475;32;34763;-73
2023/12/05 07:47:09;;;;;;;;;;;;;;;2.24;63.04;100509.38;5456130;32;34066;-68
2023/12/05 07:50:14;;;;;;;;;;;;;;;2.31;62.41;100511.06;5447063;32;34365;-74
2023/12/05 07:53:19;;;;;;;;;;;;;;;2.26;61.90;100512.84;5438912;32;38063;-70
2023/12/05 07:56:28;;;;;;;;;;;;;;;1.65;63.77;100519.00;5438695;32;34438;-76
2023/12/05 07:59:30;;;;;;;;;;;;;;;3.06;60.31;100498.59;5462899;32;34470;-71
2023/12/05 08:02:32;;;;;;;;;;;;;;;1.91;63.81;100500.81;5458192;32;33990;-68
2023/12/05 08:05:38;;;;;;;;;;;;;;;1.81;65.15;100500.00;5451851;32;34629;-69
2023/12/05 08:08:41;;;;;;;;;;;;;;;1.29;65.98;100497.44;5456898;32;33842;-79
2023/12/05 08:11:43;;;;;;;;;;;;;;;1.60;64.14;100498.25;5455793;32;36487;-65
2023/12/05 08:14:46;;;;;;;;;;;;;;;1.76;65.68;100496.53;5452512;32;34699;-67
2023/12/05 08:17:51;;;;;;;;;;;;;;;2.52;62.00;100492.84;5445826;32;35420;-70
2023/12/05 08:20:53;;;;;;;;;;;;;;;2.66;62.04;100491.03;5458384;32;34521;-72
2023/12/05 08:24:00;;;;;;;;;;;;;;;2.18;62.48;100498.13;5453312;32;34232;-71
2023/12/05 08:27:03;;;;;;;;;;;;;;;2.26;63.29;100492.97;5452725;32;34610;-68
2023/12/05 08:30:05;;;;;;;;;;;;;;;2.95;61.02;100490.00;5452156;32;33577;-72
2023/12/05 08:33:08;;;;;;;;;;;;;;;2.31;63.21;100495.50;5434463;32;34986;-69
2023/12/05 08:36:11;;;;;;;;;;;;;;;2.35;62.80;100499.84;5441490;32;35334;-82
2023/12/05 08:39:16;;;;;;;;;;;;;;;1.80;63.37;100507.75;5451727;32;34734;-75
2023/12/05 08:42:18;;;;;;;;;;;;;;;2.58;62.24;100508.37;5457767;32;36397;-79
2023/12/05 08:45:20;;;;;;;;;;;;;;;3.34;60.16;100499.25;5422321;32;34780;-73
2023/12/05 08:48:26;;;;;;;;;;;;;;;2.42;62.13;100506.72;5433793;32;34158;-73
2023/12/05 08:51:28;;;;;;;;;;;;;;;2.44;63.00;100508.41;5422267;32;34292;-70
2023/12/05 08:54:31;;;;;;;;;;;;;;;3.13;60.92;100495.06;5425279;32;34317;-76
2023/12/05 08:57:33;;;;;;;;;;;;;;;2.42;61.32;100496.34;5425417;32;34639;-79
2023/12/05 09:00:38;;;;;;;;;;;;;;;1.82;65.09;100487.87;5436866;32;36088;-85
2023/12/05 09:03:41;;;;;;;;;;;;;;;2.81;61.89;100494.41;5445780;32;35729;-69
2023/12/05 09:06:44;;;;;;;;;;;;;;;2.91;61.09;100493.50;5448248;32;34239;-73
2023/12/05 09:09:46;;;;;;;;;;;;;;;2.11;64.25;100486.06;5452820;32;35940;-69
2023/12/05 09:12:48;;;;;;;;;;;;;;;1.58;65.60;100486.19;5448849;32;35524;-71
2023/12/05 09:15:50;;;;;;;;;;;;;;;2.02;64.80;100490.44;5432335;32;34817;-74
2023/12/05 09:18:52;;;;;;;;;;;;;;;1.97;64.46;100489.56;5430528;32;34365;-71
2023/12/05 09:21:55;;;;;;;;;;;;;;;1.80;65.91;100503.44;5429694;32;35642;-72
2023/12/05 09:24:57;;;;;;;;;;;;;;;1.60;65.61;100500.84;5414678;32;34304;-69
2023/12/05 09:27:59;;;;;;;;;;;;;;;2.71;62.80;100480.66;5400145;32;35618;-84
2023/12/05 09:31:01;;;;;;;;;;;;;;;2.44;63.88;100489.41;5412851;32;34269;-79
2023/12/05 09:34:04;;;;;;;;;;;;;;;2.60;63.43;100485.88;5399374;32;36319;-75
2023/12/05 09:37:06;;;;;;;;;;;;;;;2.69;63.03;100475.44;5411235;32;35506;-71
2023/12/05 09:40:09;;;;;;;;;;;;;;;2.97;62.51;100468.38;5411349;32;34109;-74
2023/12/05 09:43:12;;;;;;;;;;;;;;;3.37;59.51;100475.00;5406301;32;34786;-71
2023/12/05 09:46:18;;;;;;;;;;;;;;;3.39;58.62;100460.25;5413152;32;33825;-70
2023/12/05 09:49:20;;;;;;;;;;;;;;;1.58;64.79;100462.88;5373858;32;38335;-71
2023/12/05 09:52:23;;;;;;;;;;;;;;;2.27;63.91;100467.87;5418695;32;34300;-73
2023/12/05 09:55:30;;;;;;;;;;;;;;;3.46;60.03;100457.56;5419687;32;35794;-70
2023/12/05 09:58:33;;;;;;;;;;;;;;;3.19;61.29;100450.87;5417832;32;34283;-76
2023/12/05 10:01:36;;;;;;;;;;;;;;;3.76;59.17;100450.37;5415019;32;35442;-78
2023/12/05 10:04:42;;;;;;;;;;;;;;;3.57;58.87;100436.69;5400789;32;34602;-70
2023/12/05 10:07:49;;;;;;;;;;;;;;;2.36;63.07;100439.28;5396251;32;34686;-76
2023/12/05 10:10:55;;;;;;;;;;;;;;;2.75;62.82;100447.72;5411161;32;34091;-73
2023/12/05 10:13:57;;;;;;;;;;;;;;;2.53;63.65;100444.41;5400028;32;36842;-74
2023/12/05 10:17:00;;;;;;;;;;;;;;;1.60;66.31;100449.03;5412620;32;34169;-71
2023/12/05 10:20:05;;;;;;;;;;;;;;;2.20;64.60;100432.47;5408128;32;34228;-76
2023/12/05 10:23:07;;;;;;;;;;;;;;;2.60;63.08;100418.41;5408820;32;34289;-71
2023/12/05 10:26:09;;;;;;;;;;;;;;;3.48;60.28;100409.06;5412533;32;35474;-69
2023/12/05 10:29:11;;;;;;;;;;;;;;;2.66;62.58;100413.19;5417168;32;35852;-68
2023/12/05 10:32:15;;;;;;;;;;;;;;;2.66;62.96;100407.13;5416954;32;35232;-75
2023/12/05 10:35:17;;;;;;;;;;;;;;;3.65;61.04;100406.28;5404932;32;34346;-74
2023/12/05 10:38:19;;;;;;;;;;;;;;;3.21;60.25;100406.69;5401365;32;34088;-73
2023/12/05 10:41:22;;;;;;;;;;;;;;;3.78;60.39;100400.06;5393799;32;36437;-72
2023/12/05 10:44:24;;;;;;;;;;;;;;;2.29;63.72;100415.12;5418674;32;34161;-69
2023/12/05 10:47:26;;;;;;;;;;;;;;;3.36;60.12;100393.59;5413663;32;34330;-74
2023/12/05 10:50:31;;;;;;;;;;;;;;;3.08;61.56;100389.50;5414872;32;32007;-70
2023/12/05 10:53:34;;;;;;;;;;;;;;;3.70;59.26;100385.44;5411167;32;35068;-68
2023/12/05 10:56:56;;;;;;;;;;;;;;;3.78;59.27;100388.81;5405539;32;35735;-70
2023/12/05 10:59:59;;;;;;;;;;;;;;;3.60;59.71;100376.88;5397000;32;34790;-84
2023/12/05 11:03:04;;;;;;;;;;;;;;;3.71;58.45;100372.41;5400876;32;34322;-73
2023/12/05 11:06:07;;;;;;;;;;;;;;;3.15;61.38;100375.59;5417198;32;35711;-79
2023/12/05 11:09:09;;;;;;;;;;;;;;;2.74;63.17;100373.34;5404117;32;34381;-77
2023/12/05 11:12:11;;;;;;;;;;;;;;;2.46;63.07;100377.88;5410705;32;35925;-75
2023/12/05 11:15:13;;;;;;;;;;;;;;;2.67;62.80;100385.50;5390901;32;34684;-75
2023/12/05 11:18:34;;;;;;;;;;;;;;;2.83;62.61;100381.91;5404271;32;35980;-74
2023/12/05 11:22:01;;;;;;;;;;;;;;;3.67;60.37;100380.25;5409081;32;37824;-76
2023/12/05 11:25:09;;;;;;;;;;;;;;;2.51;63.10;100384.72;5404707;32;34342;-77
2023/12/05 11:28:29;;;;;;;;;;;;;;;2.27;64.33;100366.75;5416521;32;31519;-72
2023/12/05 11:31:36;;;;;;;;;;;;;;;3.08;62.84;100369.59;5422674;32;34250;-75
2023/12/05 11:34:57;;;;;;;;;;;;;;;3.58;60.39;100375.16;5421750;32;34334;-74
2023/12/05 11:38:00;;;;;;;;;;;;;;;2.92;61.81;100381.84;5402870;32;34256;-73
2023/12/05 11:41:17;;;;;;;;;;;;;;;3.92;59.15;100365.25;5411473;32;34270;-73
2023/12/05 11:44:21;;;;;;;;;;;;;;;3.03;62.10;100373.97;5412731;32;34221;-72
2023/12/05 11:47:27;;;;;;;;;;;;;;;3.69;59.90;100366.37;5406111;32;34242;-81
2023/12/05 11:50:40;;;;;;;;;;;;;;;2.98;61.65;100376.59;5402832;32;34120;-70
2023/12/05 11:53:43;;;;;;;;;;;;;;;2.67;63.46;100375.97;5419427;32;35827;-69
2023/12/05 11:56:45;;;;;;;;;;;;;;;3.70;60.61;100368.09;5416738;32;34441;-70
2023/12/05 11:59:47;;;;;;;;;;;;;;;3.01;61.43;100365.31;5409515;32;33841;-72
2023/12/05 12:02:55;;;;;;;;;;;;;;;4.00;59.24;100361.69;5419241;32;35410;-72
2023/12/05 12:06:02;;;;;;;;;;;;;;;4.50;58.19;100367.91;5409676;32;34316;-69
2023/12/05 12:09:05;;;;;;;;;;;;;;;4.84;55.70;100360.47;5403918;32;34317;-73
2023/12/05 12:12:07;;;;;;;;;;;;;;;2.77;61.83;100370.72;5396488;32;34325;-74
2023/12/05 12:15:10;;;;;;;;;;;;;;;2.55;63.25;100362.22;5401581;32;33991;-71
2023/12/05 12:18:13;;;;;;;;;;;;;;;2.91;62.14;100367.16;5415006;32;35075;-76
2023/12/05 12:21:16;;;;;;;;;;;;;;;2.87;62.73;100362.00;5415455;32;35699;-74
2023/12/05 12:24:21;;;;;;;;;;;;;;;3.21;61.78;100359.94;5405969;32;35455;-72
2023/12/05 12:27:23;;;;;;;;;;;;;;;3.36;61.54;100362.41;5393246;32;35450;-75
2023/12/05 12:30:33;;;;;;;;;;;;;;;3.84;60.10;100349.72;5408840;32;35918;-72
2023/12/05 12:33:39;;;;;;;;;;;;;;;3.59;61.39;100356.09;5417657;32;34334;-74
2023/12/05 12:36:41;;;;;;;;;;;;;;;2.88;62.36;100355.91;5416921;32;32940;-72
2023/12/05 12:39:45;;;;;;;;;;;;;;;3.14;62.50;100360.88;5390864;32;36454;-69
2023/12/05 12:42:52;;;;;;;;;;;;;;;4.05;60.68;100348.59;5404354;32;34678;-68
2023/12/05 12:45:57;;;;;;;;;;;;;;;4.51;58.36;100345.37;5410961;32;34319;-74
2023/12/05 12:49:03;;;;;;;;;;;;;;;3.55;60.67;100350.09;5408874;32;38673;-78
2023/12/05 12:52:06;;;;;;;;;;;;;;;3.58;61.21;100352.66;5421416;32;34804;-73
2023/12/05 12:55:09;;;;;;;;;;;;;;;4.16;59.12;100345.87;5413740;32;34223;-73
2023/12/05 12:58:15;;;;;;;;;;;;;;;3.24;61.80;100349.53;5420470;32;34184;-81
2023/12/05 13:01:20;;;;;;;;;;;;;;;4.28;59.71;100346.56;5394715;32;34783;-77
2023/12/05 13:04:27;;;;;;;;;;;;;;;5.06;56.35;100334.91;5411959;32;34417;-69
2023/12/05 13:07:31;;;;;;;;;;;;;;;4.41;57.50;100341.19;5414035;32;34285;-75
2023/12/05 13:10:36;;;;;;;;;;;;;;;3.50;60.58;100331.09;5397742;32;34947;-81
2023/12/05 13:13:39;;;;;;;;;;;;;;;3.25;61.07;100340.88;5412831;32;34149;-70
2023/12/05 13:16:41;;;;;;;;;;;;;;;2.77;62.44;100355.13;5411956;32;34815;-77
2023/12/05 13:19:44;;;;;;;;;;;;;;;3.29;62.42;100352.09;5416545;32;35224;-72
2023/12/05 13:22:48;;;;;;;;;;;;;;;3.80;60.41;100354.12;5406290;32;34485;-69
2023/12/05 13:25:53;;;;;;;;;;;;;;;4.31;59.57;100343.91;5415793;32;34288;-73
2023/12/05 13:28:56;;;;;;;;;;;;;;;3.75;60.45;100348.13;5419433;32;35253;-74
2023/12/05 13:31:58;;;;;;;;;;;;;;;4.08;59.01;100339.03;5422461;32;34701;-79
2023/12/05 13:35:05;;;;;;;;;;;;;;;4.47;57.95;100336.75;5415974;32;34203;-77
2023/12/05 13:38:10;;;;;;;;;;;;;;;3.03;61.76;100340.22;5418184;32;34576;-73
2023/12/05 13:41:12;;;;;;;;;;;;;;;3.25;62.04;100338.28;5414747;32;35489;-79
2023/12/05 13:44:14;;;;;;;;;;;;;;;3.22;61.81;100330.50;5406285;32;34288;-77
2023/12/05 13:47:17;;;;;;;;;;;;;;;3.92;59.89;100329.69;5396627;32;34230;-74
2023/12/05 13:50:21;;;;;;;;;;;;;;;4.86;57.04;100330.03;5412384;32;33097;-78
2023/12/05 13:53:26;;;;;;;;;;;;;;;3.81;60.30;100336.78;5403655;32;34430;-69
2023/12/05 13:56:28;;;;;;;;;;;;;;;2.92;62.78;100336.84;5413392;32;36907;-75
2023/12/05 13:59:31;;;;;;;;;;;;;;;3.73;61.46;100329.06;5416362;32;35154;-74
2023/12/05 14:02:33;;;;;;;;;;;;;;;3.80;61.18;100327.28;5422330;32;34075;-79
2023/12/05 14:05:36;;;;;;;;;;;;;;;3.98;60.18;100326.16;5427601;32;35897;-75
2023/12/05 14:08:38;;;;;;;;;;;;;;;4.26;59.34;100330.12;5403356;32;34568;-78
2023/12/05 14:11:43;;;;;;;;;;;;;;;4.75;58.17;100329.34;5419866;32;34277;-75
2023/12/05 14:14:46;;;;;;;;;;;;;;;4.56;58.85;100334.00;5408845;32;35627;-86
2023/12/05 14:17:48;;;;;;;;;;;;;;;3.70;61.38;100342.09;5421010;32;34111;-71
2023/12/05 14:20:50;;;;;;;;;;;;;;;4.22;59.78;100341.44;5422061;32;34901;-71
2023/12/05 14:23:59;;;;;;;;;;;;;;;4.01;59.46;100349.53;5404726;32;38125;-71
2023/12/05 14:27:03;;;;;;;;;;;;;;;3.72;60.20;100345.53;5444637;32;35243;-75
2023/12/05 14:30:06;;;;;;;;;;;;;;;3.29;62.93;100352.09;5451779;32;34874;-73
2023/12/05 14:33:13;;;;;;;;;;;;;;;3.42;63.26;100358.91;5458463;32;36197;-75
2023/12/05 14:36:17;;;;;;;;;;;;;;;4.00;61.50;100347.81;5449214;32;35196;-71
2023/12/05 14:39:19;;;;;;;;;;;;;;;4.07;60.27;100352.06;5453192;32;34671;-69
2023/12/05 14:42:22;;;;;;;;;;;;;;;4.49;59.54;100350.59;5466077;32;34181;-72
2023/12/05 14:45:27;;;;;;;;;;;;;;;3.20;62.60;100356.50;5459744;32;34632;-77
2023/12/05 14:48:29;;;;;;;;;;;;;;;4.03;60.50;100355.56;5447331;32;35674;-76
2023/12/05 14:51:31;;;;;;;;;;;;;;;4.81;58.23;100357.03;5437739;32;34099;-74
2023/12/05 14:54:34;;;;;;;;;;;;;;;4.61;58.42;100355.59;5443634;32;35400;-73
2023/12/05 14:57:36;;;;;;;;;;;;;;;4.34;59.14;100354.28;5465388;32;34593;-76
2023/12/05 15:00:38;;;;;;;;;;;;;;;3.98;59.99;100367.75;5456527;32;34696;-74
2023/12/05 15:03:40;;;;;;;;;;;;;;;4.41;59.94;100359.41;5446250;32;35361;-74
2023/12/05 15:06:43;;;;;;;;;;;;;;;3.58;62.55;100369.97;5451161;32;34859;-80
2023/12/05 15:09:45;;;;;;;;;;;;;;;4.16;60.50;100362.34;5442927;32;35195;-75
2023/12/05 15:12:55;;;;;;;;;;;;;;;3.26;63.28;100366.81;5437517;32;34744;-79
2023/12/05 15:15:57;;;;;;;;;;;;;;;3.45;62.83;100364.91;5443793;32;34295;-80
2023/12/05 15:18:59;;;;;;;;;;;;;;;3.51;62.42;100367.44;5460104;32;34013;-83
2023/12/05 15:22:02;;;;;;;;;;;;;;;3.78;61.71;100361.06;5438054;32;36127;-79
2023/12/05 15:25:04;;;;;;;;;;;;;;;4.31;60.24;100369.91;5463916;32;34917;-78
2023/12/05 15:28:11;;;;;;;;;;;;;;;3.55;62.37;100368.28;5437755;32;34413;-82
2023/12/05 15:31:15;;;;;;;;;;;;;;;3.66;62.73;100365.53;5453183;32;34336;-76
2023/12/05 15:34:19;;;;;;;;;;;;;;;3.16;64.58;100369.53;5462491;32;34238;-74
2023/12/05 15:37:21;;;;;;;;;;;;;;;4.20;61.21;100368.38;5459890;32;34892;-72
2023/12/05 15:40:23;;;;;;;;;;;;;;;3.25;64.04;100370.31;5460921;32;35928;-78
2023/12/05 15:43:26;;;;;;;;;;;;;;;3.44;63.13;100362.34;5457161;32;34904;-70
2023/12/05 15:46:28;;;;;;;;;;;;;;;4.20;61.17;100364.03;5456571;32;36254;-76
2023/12/05 15:49:33;;;;;;;;;;;;;;;3.80;61.92;100367.13;5442342;32;34428;-72
2023/12/05 15:52:38;;;;;;;;;;;;;;;3.67;62.13;100367.25;5448034;32;35929;-74
2023/12/05 15:55:40;;;;;;;;;;;;;;;3.47;63.48;100375.28;5442438;32;36150;-77